This is the latest recevied weather packets stored in our database for station/object K1KOF. If no packets are shown the sender has not sent any weather packets the latest 10 day(s).
| Time | Temp. | Humidity | Pressure | Rain* | Wind** | Luminosity | Snow |
|---|---|---|---|---|---|---|---|
| 1777487736 | 26.11° C | 73% | 1021.5 hPa | 0 mm | - | 740 W/m² | - |
| 1777487433 | 26.11° C | 73% | 1021.7 hPa | 0 mm | - | 252 W/m² | - |
| 1777487131 | 26.67° C | 72% | 1021.4 hPa | 0 mm | - | 751 W/m² | - |
| 1777486826 | 25.56° C | 73% | 1021.9 hPa | 0 mm | - | 762 W/m² | - |
| 1777486524 | 26.11° C | 73% | 1021.6 hPa | 0 mm | - | 629 W/m² | - |
| 1777486222 | 26.67° C | 72% | 1021.8 hPa | 0 mm | - | 226 W/m² | - |
| 1777485919 | 25.56° C | 75% | 1021.8 hPa | 0 mm | - | 746 W/m² | - |
| 1777485615 | 25° C | 74% | 1021.7 hPa | 0 mm | - | 799 W/m² | - |
| 1777485310 | 25° C | 74% | 1022 hPa | 0 mm | - | 428 W/m² | - |
| 1777485007 | 25.56° C | 74% | 1021.8 hPa | 0 mm | - | 884 W/m² | - |
| 1777484704 | 25° C | 77% | 1021.9 hPa | 0 mm | - | 807 W/m² | - |
| 1777484400 | 24.44° C | 77% | 1022 hPa | 0 mm | - | 325 W/m² | - |
| 1777484096 | 24.44° C | 76% | 1022.2 hPa | 0 mm | - | 848 W/m² | - |
| 1777483793 | 24.44° C | 78% | 1022.3 hPa | 0 mm | - | 577 W/m² | - |
| 1777483490 | 24.44° C | 76% | 1022.4 hPa | 0 mm | - | 511 W/m² | - |
| 1777483184 | 24.44° C | 78% | 1022.7 hPa | 0 mm | - | 445 W/m² | - |
| 1777482881 | 23.89° C | 79% | 1022.6 hPa | 0 mm | - | 305 W/m² | - |
| 1777482577 | 23.89° C | 78% | 1022.9 hPa | 0 mm | - | 286 W/m² | - |
| 1777482275 | 23.89° C | 79% | 1022.7 hPa | 0 mm | - | 428 W/m² | - |
| 1777481972 | 23.33° C | 80% | 1023 hPa | 0 mm | - | 267 W/m² | - |
| 1777481670 | 23.33° C | 80% | 1022.7 hPa | 0 mm | - | 245 W/m² | - |
| 1777481366 | 23.89° C | 79% | 1023.3 hPa | 0 mm | - | 256 W/m² | - |
| 1777481063 | 23.33° C | 80% | 1023.6 hPa | 0 mm | - | 215 W/m² | - |
| 1777480759 | 23.33° C | 80% | 1023.4 hPa | 0 mm | - | 212 W/m² | - |
| 1777480456 | 23.33° C | 80% | 1023.5 hPa | 0 mm | - | 160 W/m² | - |
* Rain latest hour (hover to see other rain measurements)
** Current wind speed in m/s (hover to see current wind gust speed)